createdAt,value
2022-10-29T15:04:15.813Z,100317.28
2022-10-29T15:12:58.065Z,100317.03
2022-10-29T16:41:52.189Z,100294.69
2022-10-29T16:48:20.859Z,100282.06
2022-10-29T16:51:09.269Z,100287.94
2022-10-29T16:53:57.604Z,100288.09
2022-10-29T16:56:46.548Z,100282.59
2022-10-29T16:59:34.641Z,100287.53
2022-10-29T17:02:22.981Z,100281.56
2022-10-29T17:05:15.402Z,100278.38
2022-10-29T17:08:04.427Z,100277.69
2022-10-29T17:11:04.262Z,100280.38
2022-10-29T17:13:52.691Z,100283.53
2022-10-29T17:16:41.150Z,100286.69
2022-10-29T17:19:30.335Z,100284.94
2022-10-29T17:22:18.708Z,100283.00
2022-10-29T17:25:07.689Z,100282.78
2022-10-29T17:27:56.298Z,100283.75
2022-10-29T17:30:44.639Z,100284.47
2022-10-29T17:33:33.099Z,100270.47
2022-10-29T17:36:21.429Z,100273.59
2022-10-29T17:39:10.332Z,100288.72
2022-10-29T17:41:58.751Z,100281.84
2022-10-29T17:44:54.474Z,100283.47
2022-10-29T17:47:42.703Z,100284.47
2022-10-29T17:50:30.953Z,100288.19
2022-10-29T17:53:27.432Z,100291.16
2022-10-29T17:56:15.516Z,100295.13
2022-10-29T17:59:06.047Z,100296.56
2022-10-29T18:01:56.296Z,100297.78
2022-10-29T18:04:46.532Z,100291.44
2022-10-29T18:07:34.951Z,100299.47
2022-10-29T18:10:23.341Z,100297.09
2022-10-29T18:13:11.473Z,100296.00
2022-10-29T18:16:01.712Z,100290.31
2022-10-29T18:19:01.927Z,100297.34
2022-10-29T18:21:51.280Z,100298.41
2022-10-29T18:24:39.537Z,100292.78
2022-10-29T18:27:28.079Z,100291.44
2022-10-29T18:30:16.440Z,100301.78
2022-10-29T18:33:07.257Z,100301.78
2022-10-29T18:35:57.061Z,100297.22
2022-10-29T18:38:51.157Z,100293.16
2022-10-29T18:41:42.183Z,100292.09
2022-10-29T18:44:31.957Z,100295.00
2022-10-29T18:47:20.050Z,100295.53
2022-10-29T18:50:08.601Z,100297.50
2022-10-29T18:53:00.120Z,100292.22
2022-10-29T18:55:52.401Z,100298.13
2022-10-29T18:58:40.699Z,100297.31
2022-10-29T19:01:34.116Z,100295.97
2022-10-29T19:04:22.373Z,100283.50
2022-10-29T19:07:10.579Z,100286.50
2022-10-29T19:09:58.728Z,100286.63
2022-10-29T19:12:46.841Z,100284.81
2022-10-29T19:15:39.472Z,100289.31
2022-10-29T19:18:27.867Z,100286.69
2022-10-29T19:21:18.604Z,100282.66
2022-10-29T19:24:08.130Z,100290.88
2022-10-29T19:26:56.265Z,100290.09
2022-10-29T19:29:44.401Z,100282.81
2022-10-29T19:32:32.760Z,100283.31
2022-10-29T19:35:21.087Z,100289.81
2022-10-29T19:38:09.349Z,100282.38
2022-10-29T19:40:57.596Z,100286.22
2022-10-29T19:43:48.306Z,100294.16
2022-10-29T19:46:36.535Z,100290.75
2022-10-29T19:49:27.404Z,100273.50
2022-10-29T19:52:18.093Z,100285.28
2022-10-29T19:55:07.218Z,100282.50
2022-10-29T19:57:58.072Z,100281.81
2022-10-29T20:00:47.120Z,100276.44
2022-10-29T20:03:36.449Z,100277.47
2022-10-29T20:06:26.953Z,100271.59
2022-10-29T20:09:15.282Z,100272.84
2022-10-29T20:12:03.334Z,100289.88
2022-10-29T20:14:51.582Z,100284.81
2022-10-29T20:17:39.993Z,100280.03
2022-10-29T20:20:28.490Z,100280.03
2022-10-29T20:23:19.070Z,100289.31
2022-10-29T20:26:08.117Z,100283.59
2022-10-29T20:28:59.312Z,100285.13
2022-10-29T20:31:47.767Z,100287.59
2022-10-29T20:34:36.193Z,100276.94
2022-10-29T20:37:24.926Z,100282.06
2022-10-29T20:40:13.528Z,100281.44
2022-10-29T20:43:01.832Z,100273.69
2022-10-29T20:45:49.910Z,100285.47
2022-10-29T20:48:37.846Z,100276.03
2022-10-29T20:51:27.157Z,100273.88
2022-10-29T20:54:15.130Z,100284.97
2022-10-29T20:57:03.366Z,100276.78
2022-10-29T20:59:51.324Z,100282.50
2022-10-29T21:02:39.770Z,100276.72
2022-10-29T21:05:27.893Z,100279.84
2022-10-29T21:08:16.024Z,100288.84
2022-10-29T21:11:10.816Z,100278.97
2022-10-29T21:13:59.240Z,100281.72
2022-10-29T21:16:47.349Z,100286.03
2022-10-29T21:19:35.563Z,100280.94
2022-10-29T21:22:24.001Z,100283.13
2022-10-29T21:25:15.151Z,100280.81
2022-10-29T21:28:03.550Z,100287.19
2022-10-29T21:30:51.781Z,100285.59
2022-10-29T21:33:40.329Z,100277.09
2022-10-29T21:36:28.541Z,100279.88
2022-10-29T21:39:16.772Z,100279.72
2022-10-29T21:42:04.972Z,100286.41
2022-10-29T21:44:52.923Z,100276.94
2022-10-29T21:47:40.785Z,100271.84
2022-10-29T21:50:28.894Z,100271.06
2022-10-29T21:53:16.876Z,100275.25
2022-10-29T21:56:08.368Z,100264.06
2022-10-29T21:58:56.408Z,100262.84
2022-10-29T22:01:44.535Z,100263.50
2022-10-29T22:04:32.955Z,100266.22
2022-10-29T22:07:21.125Z,100266.44
2022-10-29T22:10:09.768Z,100264.56
2022-10-29T22:12:58.317Z,100268.44
2022-10-29T22:15:46.534Z,100257.59
2022-10-29T22:18:35.532Z,100261.94
2022-10-29T22:21:26.054Z,100261.63
2022-10-29T22:24:14.163Z,100259.28
2022-10-29T22:27:02.292Z,100257.63
2022-10-29T22:29:53.573Z,100251.53
2022-10-29T22:32:42.520Z,100267.06
2022-10-29T22:35:30.543Z,100255.25
2022-10-29T22:38:18.611Z,100250.47
2022-10-29T22:41:12.280Z,100252.31
2022-10-29T22:44:01.177Z,100256.78
2022-10-29T22:46:49.156Z,100257.66
2022-10-29T22:49:37.249Z,100252.34
2022-10-29T22:52:25.744Z,100255.56
2022-10-29T22:55:14.122Z,100254.19
2022-10-29T22:58:02.133Z,100251.09
2022-10-29T23:00:50.308Z,100245.47
2022-10-29T23:03:40.450Z,100252.09
2022-10-29T23:06:34.189Z,100246.09
2022-10-29T23:09:22.138Z,100251.97
2022-10-29T23:12:10.149Z,100253.00
2022-10-29T23:14:58.072Z,100248.84
2022-10-29T23:17:46.213Z,100255.25
2022-10-29T23:20:34.243Z,100255.88
2022-10-29T23:23:22.340Z,100253.09
2022-10-29T23:26:11.611Z,100255.59
2022-10-29T23:28:59.593Z,100266.09
2022-10-29T23:31:47.558Z,100253.44
2022-10-29T23:34:36.034Z,100263.00
2022-10-29T23:37:24.242Z,100254.06
2022-10-29T23:40:12.621Z,100254.81
2022-10-29T23:43:00.543Z,100254.31
2022-10-29T23:45:48.870Z,100250.47
2022-10-29T23:48:36.879Z,100251.09
2022-10-29T23:51:25.253Z,100249.22
2022-10-29T23:54:13.368Z,100239.78
2022-10-29T23:57:01.541Z,100247.22
2022-10-29T23:59:49.405Z,100236.22
